sensor_id;sensor_type;location;lat;lon;timestamp;P1;durP1;ratioP1;P2;durP2;ratioP2
43857;SDS011;29507;51.284;5.758;2023-05-10T00:00:00;26.90;;;10.45;;
43857;SDS011;29507;51.284;5.758;2023-05-10T00:02:25;29.25;;;11.25;;
43857;SDS011;29507;51.284;5.758;2023-05-10T00:04:51;28.20;;;10.48;;
43857;SDS011;29507;51.284;5.758;2023-05-10T00:07:17;38.13;;;12.20;;
43857;SDS011;29507;51.284;5.758;2023-05-10T00:09:43;33.60;;;11.70;;
43857;SDS011;29507;51.284;5.758;2023-05-10T00:12:09;33.15;;;11.82;;
43857;SDS011;29507;51.284;5.758;2023-05-10T00:14:34;32.17;;;11.10;;
43857;SDS011;29507;51.284;5.758;2023-05-10T00:17:00;36.08;;;11.13;;
43857;SDS011;29507;51.284;5.758;2023-05-10T00:19:26;32.30;;;11.05;;
43857;SDS011;29507;51.284;5.758;2023-05-10T00:21:51;34.17;;;10.65;;
43857;SDS011;29507;51.284;5.758;2023-05-10T00:24:17;40.20;;;11.43;;
43857;SDS011;29507;51.284;5.758;2023-05-10T00:26:43;27.90;;;10.70;;
43857;SDS011;29507;51.284;5.758;2023-05-10T00:29:08;35.65;;;11.70;;
43857;SDS011;29507;51.284;5.758;2023-05-10T00:31:34;33.88;;;11.13;;
43857;SDS011;29507;51.284;5.758;2023-05-10T00:33:59;35.65;;;11.57;;
43857;SDS011;29507;51.284;5.758;2023-05-10T00:36:25;35.95;;;13.20;;
43857;SDS011;29507;51.284;5.758;2023-05-10T00:38:51;31.77;;;10.25;;
43857;SDS011;29507;51.284;5.758;2023-05-10T00:41:16;30.63;;;10.40;;
43857;SDS011;29507;51.284;5.758;2023-05-10T00:43:42;34.08;;;11.30;;
43857;SDS011;29507;51.284;5.758;2023-05-10T00:46:08;34.10;;;11.10;;
43857;SDS011;29507;51.284;5.758;2023-05-10T00:48:33;31.73;;;10.55;;
43857;SDS011;29507;51.284;5.758;2023-05-10T00:51:00;29.90;;;11.23;;
43857;SDS011;29507;51.284;5.758;2023-05-10T00:53:26;32.53;;;11.35;;
43857;SDS011;29507;51.284;5.758;2023-05-10T00:55:52;34.15;;;10.20;;
43857;SDS011;29507;51.284;5.758;2023-05-10T00:58:18;29.42;;;10.52;;
43857;SDS011;29507;51.284;5.758;2023-05-10T01:00:43;25.45;;;9.73;;
43857;SDS011;29507;51.284;5.758;2023-05-10T01:03:12;31.75;;;10.18;;
43857;SDS011;29507;51.284;5.758;2023-05-10T01:05:39;32.65;;;10.02;;
43857;SDS011;29507;51.284;5.758;2023-05-10T01:08:04;30.70;;;10.60;;
43857;SDS011;29507;51.284;5.758;2023-05-10T01:10:31;24.00;;;9.68;;
43857;SDS011;29507;51.284;5.758;2023-05-10T01:12:57;23.27;;;9.10;;
43857;SDS011;29507;51.284;5.758;2023-05-10T01:15:24;26.00;;;9.52;;
43857;SDS011;29507;51.284;5.758;2023-05-10T01:17:50;31.15;;;11.05;;
43857;SDS011;29507;51.284;5.758;2023-05-10T01:20:17;28.85;;;9.77;;
43857;SDS011;29507;51.284;5.758;2023-05-10T01:23:27;30.48;;;11.32;;
43857;SDS011;29507;51.284;5.758;2023-05-10T01:34:02;37.00;;;12.65;;
43857;SDS011;29507;51.284;5.758;2023-05-10T01:36:35;39.08;;;13.93;;
43857;SDS011;29507;51.284;5.758;2023-05-10T01:39:11;40.65;;;13.60;;
43857;SDS011;29507;51.284;5.758;2023-05-10T01:42:10;40.63;;;12.98;;
43857;SDS011;29507;51.284;5.758;2023-05-10T01:44:37;35.90;;;14.02;;
43857;SDS011;29507;51.284;5.758;2023-05-10T01:47:11;35.53;;;14.35;;
43857;SDS011;29507;51.284;5.758;2023-05-10T01:49:49;48.70;;;14.95;;
43857;SDS011;29507;51.284;5.758;2023-05-10T01:52:18;56.47;;;17.17;;
43857;SDS011;29507;51.284;5.758;2023-05-10T01:54:48;52.95;;;17.42;;
43857;SDS011;29507;51.284;5.758;2023-05-10T01:57:18;49.08;;;16.23;;
43857;SDS011;29507;51.284;5.758;2023-05-10T01:59:46;49.05;;;17.40;;
43857;SDS011;29507;51.284;5.758;2023-05-10T02:02:15;52.97;;;17.70;;
43857;SDS011;29507;51.284;5.758;2023-05-10T02:04:42;62.60;;;18.40;;
43857;SDS011;29507;51.284;5.758;2023-05-10T02:07:08;64.55;;;17.42;;
43857;SDS011;29507;51.284;5.758;2023-05-10T02:09:35;50.33;;;19.45;;
43857;SDS011;29507;51.284;5.758;2023-05-10T02:12:03;71.35;;;21.88;;
43857;SDS011;29507;51.284;5.758;2023-05-10T02:14:32;60.30;;;20.40;;
43857;SDS011;29507;51.284;5.758;2023-05-10T02:19:27;58.67;;;19.73;;
43857;SDS011;29507;51.284;5.758;2023-05-10T02:21:55;54.72;;;20.83;;
43857;SDS011;29507;51.284;5.758;2023-05-10T02:24:22;68.13;;;21.55;;
43857;SDS011;29507;51.284;5.758;2023-05-10T02:26:49;51.40;;;19.27;;
43857;SDS011;29507;51.284;5.758;2023-05-10T02:29:16;49.33;;;18.33;;
43857;SDS011;29507;51.284;5.758;2023-05-10T02:31:42;59.10;;;18.63;;
43857;SDS011;29507;51.284;5.758;2023-05-10T02:34:08;61.33;;;18.00;;
43857;SDS011;29507;51.284;5.758;2023-05-10T02:36:36;49.78;;;18.05;;
43857;SDS011;29507;51.284;5.758;2023-05-10T02:39:04;56.65;;;18.60;;
43857;SDS011;29507;51.284;5.758;2023-05-10T02:41:34;47.13;;;17.27;;
43857;SDS011;29507;51.284;5.758;2023-05-10T02:44:01;46.05;;;17.58;;
43857;SDS011;29507;51.284;5.758;2023-05-10T02:46:28;47.58;;;16.92;;
43857;SDS011;29507;51.284;5.758;2023-05-10T02:48:54;48.05;;;16.88;;
43857;SDS011;29507;51.284;5.758;2023-05-10T02:51:20;45.80;;;17.45;;
43857;SDS011;29507;51.284;5.758;2023-05-10T02:53:53;51.17;;;16.27;;
43857;SDS011;29507;51.284;5.758;2023-05-10T02:56:23;50.63;;;17.90;;
43857;SDS011;29507;51.284;5.758;2023-05-10T02:58:53;43.05;;;15.60;;
43857;SDS011;29507;51.284;5.758;2023-05-10T03:01:20;47.00;;;18.02;;
43857;SDS011;29507;51.284;5.758;2023-05-10T03:03:45;49.25;;;19.30;;
43857;SDS011;29507;51.284;5.758;2023-05-10T03:06:11;56.55;;;19.98;;
43857;SDS011;29507;51.284;5.758;2023-05-10T03:08:36;68.03;;;22.95;;
43857;SDS011;29507;51.284;5.758;2023-05-10T03:13:54;61.63;;;21.00;;
43857;SDS011;29507;51.284;5.758;2023-05-10T03:16:25;68.63;;;20.52;;
43857;SDS011;29507;51.284;5.758;2023-05-10T03:21:36;65.25;;;20.88;;
43857;SDS011;29507;51.284;5.758;2023-05-10T03:24:07;59.22;;;19.38;;
43857;SDS011;29507;51.284;5.758;2023-05-10T03:26:33;61.20;;;20.63;;
43857;SDS011;29507;51.284;5.758;2023-05-10T03:29:02;56.60;;;18.08;;
43857;SDS011;29507;51.284;5.758;2023-05-10T03:31:29;63.50;;;19.55;;
43857;SDS011;29507;51.284;5.758;2023-05-10T03:33:54;54.72;;;19.10;;
43857;SDS011;29507;51.284;5.758;2023-05-10T03:36:20;54.55;;;17.92;;
43857;SDS011;29507;51.284;5.758;2023-05-10T03:38:46;54.05;;;19.63;;
43857;SDS011;29507;51.284;5.758;2023-05-10T03:41:11;56.05;;;17.58;;
43857;SDS011;29507;51.284;5.758;2023-05-10T03:43:37;57.10;;;17.88;;
43857;SDS011;29507;51.284;5.758;2023-05-10T03:46:03;66.75;;;20.17;;
43857;SDS011;29507;51.284;5.758;2023-05-10T03:48:30;58.58;;;19.88;;
43857;SDS011;29507;51.284;5.758;2023-05-10T03:50:56;58.47;;;18.52;;
43857;SDS011;29507;51.284;5.758;2023-05-10T03:53:22;62.00;;;20.45;;
43857;SDS011;29507;51.284;5.758;2023-05-10T03:55:48;67.75;;;20.20;;
43857;SDS011;29507;51.284;5.758;2023-05-10T03:58:13;58.05;;;19.00;;
43857;SDS011;29507;51.284;5.758;2023-05-10T04:00:39;64.53;;;20.40;;
43857;SDS011;29507;51.284;5.758;2023-05-10T04:03:11;57.88;;;18.73;;
43857;SDS011;29507;51.284;5.758;2023-05-10T04:05:37;61.30;;;18.80;;
43857;SDS011;29507;51.284;5.758;2023-05-10T04:08:03;65.18;;;20.73;;
43857;SDS011;29507;51.284;5.758;2023-05-10T04:10:30;64.35;;;19.65;;
43857;SDS011;29507;51.284;5.758;2023-05-10T04:12:55;69.72;;;19.08;;
43857;SDS011;29507;51.284;5.758;2023-05-10T04:15:21;72.43;;;20.88;;
43857;SDS011;29507;51.284;5.758;2023-05-10T04:17:47;61.88;;;19.40;;
43857;SDS011;29507;51.284;5.758;2023-05-10T04:20:12;64.18;;;19.65;;
43857;SDS011;29507;51.284;5.758;2023-05-10T04:22:38;71.47;;;19.80;;
43857;SDS011;29507;51.284;5.758;2023-05-10T04:25:04;63.20;;;20.13;;
43857;SDS011;29507;51.284;5.758;2023-05-10T04:27:31;64.85;;;19.65;;
43857;SDS011;29507;51.284;5.758;2023-05-10T04:29:56;54.50;;;18.58;;
43857;SDS011;29507;51.284;5.758;2023-05-10T04:32:22;55.42;;;18.77;;
43857;SDS011;29507;51.284;5.758;2023-05-10T04:34:48;58.03;;;19.33;;
43857;SDS011;29507;51.284;5.758;2023-05-10T04:37:14;61.67;;;20.27;;
43857;SDS011;29507;51.284;5.758;2023-05-10T04:39:39;55.17;;;17.02;;
43857;SDS011;29507;51.284;5.758;2023-05-10T04:42:05;52.42;;;18.10;;
43857;SDS011;29507;51.284;5.758;2023-05-10T04:44:31;45.53;;;17.33;;
43857;SDS011;29507;51.284;5.758;2023-05-10T04:46:57;55.20;;;18.63;;
43857;SDS011;29507;51.284;5.758;2023-05-10T04:49:23;53.97;;;17.30;;
43857;SDS011;29507;51.284;5.758;2023-05-10T04:51:48;49.65;;;16.98;;
43857;SDS011;29507;51.284;5.758;2023-05-10T04:54:14;48.20;;;15.30;;
43857;SDS011;29507;51.284;5.758;2023-05-10T04:56:40;48.58;;;17.52;;
43857;SDS011;29507;51.284;5.758;2023-05-10T04:59:05;46.80;;;15.65;;
43857;SDS011;29507;51.284;5.758;2023-05-10T05:01:31;51.42;;;18.65;;
43857;SDS011;29507;51.284;5.758;2023-05-10T05:03:57;53.58;;;17.67;;
43857;SDS011;29507;51.284;5.758;2023-05-10T05:06:23;43.50;;;16.13;;
43857;SDS011;29507;51.284;5.758;2023-05-10T05:08:50;49.53;;;17.60;;
43857;SDS011;29507;51.284;5.758;2023-05-10T05:11:16;50.67;;;16.38;;
43857;SDS011;29507;51.284;5.758;2023-05-10T05:13:42;51.10;;;16.98;;
43857;SDS011;29507;51.284;5.758;2023-05-10T05:16:07;45.35;;;16.08;;
43857;SDS011;29507;51.284;5.758;2023-05-10T05:18:33;45.53;;;17.10;;
43857;SDS011;29507;51.284;5.758;2023-05-10T05:20:58;48.88;;;16.77;;
43857;SDS011;29507;51.284;5.758;2023-05-10T05:23:24;50.85;;;19.02;;
43857;SDS011;29507;51.284;5.758;2023-05-10T05:25:53;35.30;;;15.45;;
43857;SDS011;29507;51.284;5.758;2023-05-10T05:28:19;39.28;;;15.80;;
43857;SDS011;29507;51.284;5.758;2023-05-10T05:30:45;40.75;;;16.58;;
43857;SDS011;29507;51.284;5.758;2023-05-10T05:33:11;44.13;;;17.40;;
43857;SDS011;29507;51.284;5.758;2023-05-10T05:35:39;43.50;;;16.88;;
43857;SDS011;29507;51.284;5.758;2023-05-10T05:38:04;48.00;;;16.80;;
43857;SDS011;29507;51.284;5.758;2023-05-10T05:40:31;46.63;;;18.40;;
43857;SDS011;29507;51.284;5.758;2023-05-10T05:42:56;43.03;;;17.27;;
43857;SDS011;29507;51.284;5.758;2023-05-10T05:45:22;40.85;;;17.75;;
43857;SDS011;29507;51.284;5.758;2023-05-10T05:47:47;43.13;;;18.20;;
43857;SDS011;29507;51.284;5.758;2023-05-10T05:50:13;42.70;;;17.23;;
43857;SDS011;29507;51.284;5.758;2023-05-10T05:52:38;43.90;;;18.10;;
43857;SDS011;29507;51.284;5.758;2023-05-10T05:55:04;42.65;;;18.38;;
43857;SDS011;29507;51.284;5.758;2023-05-10T05:57:30;46.70;;;18.83;;
43857;SDS011;29507;51.284;5.758;2023-05-10T05:59:56;42.65;;;16.85;;
43857;SDS011;29507;51.284;5.758;2023-05-10T06:02:22;39.42;;;18.25;;
43857;SDS011;29507;51.284;5.758;2023-05-10T06:04:47;41.72;;;17.95;;
43857;SDS011;29507;51.284;5.758;2023-05-10T06:07:13;38.55;;;18.25;;
43857;SDS011;29507;51.284;5.758;2023-05-10T06:09:38;36.85;;;16.60;;
43857;SDS011;29507;51.284;5.758;2023-05-10T06:12:04;33.13;;;15.95;;
43857;SDS011;29507;51.284;5.758;2023-05-10T06:14:30;34.53;;;15.63;;
43857;SDS011;29507;51.284;5.758;2023-05-10T06:16:55;27.70;;;13.95;;
43857;SDS011;29507;51.284;5.758;2023-05-10T06:19:21;33.17;;;14.70;;
43857;SDS011;29507;51.284;5.758;2023-05-10T06:21:46;25.33;;;13.00;;
43857;SDS011;29507;51.284;5.758;2023-05-10T06:24:12;30.10;;;14.18;;
43857;SDS011;29507;51.284;5.758;2023-05-10T06:26:38;27.45;;;13.05;;
43857;SDS011;29507;51.284;5.758;2023-05-10T06:29:03;29.33;;;12.43;;
43857;SDS011;29507;51.284;5.758;2023-05-10T06:31:29;25.42;;;11.38;;
43857;SDS011;29507;51.284;5.758;2023-05-10T06:33:54;22.35;;;10.93;;
43857;SDS011;29507;51.284;5.758;2023-05-10T06:36:20;21.80;;;10.77;;
43857;SDS011;29507;51.284;5.758;2023-05-10T06:38:46;23.67;;;11.90;;
43857;SDS011;29507;51.284;5.758;2023-05-10T06:41:12;30.17;;;12.63;;
43857;SDS011;29507;51.284;5.758;2023-05-10T06:43:38;26.58;;;11.23;;
43857;SDS011;29507;51.284;5.758;2023-05-10T06:46:06;27.05;;;11.90;;
43857;SDS011;29507;51.284;5.758;2023-05-10T06:48:32;23.52;;;10.73;;
43857;SDS011;29507;51.284;5.758;2023-05-10T06:50:57;24.92;;;12.07;;
43857;SDS011;29507;51.284;5.758;2023-05-10T06:53:23;22.60;;;10.90;;
43857;SDS011;29507;51.284;5.758;2023-05-10T06:55:49;29.05;;;13.02;;
43857;SDS011;29507;51.284;5.758;2023-05-10T06:58:15;25.60;;;12.52;;
43857;SDS011;29507;51.284;5.758;2023-05-10T07:00:40;23.92;;;12.48;;
43857;SDS011;29507;51.284;5.758;2023-05-10T07:03:08;25.98;;;12.23;;
43857;SDS011;29507;51.284;5.758;2023-05-10T07:05:37;27.65;;;11.98;;
43857;SDS011;29507;51.284;5.758;2023-05-10T07:08:02;21.85;;;11.88;;
43857;SDS011;29507;51.284;5.758;2023-05-10T07:10:28;21.20;;;11.13;;
43857;SDS011;29507;51.284;5.758;2023-05-10T07:12:53;24.35;;;13.00;;
43857;SDS011;29507;51.284;5.758;2023-05-10T07:15:19;25.48;;;12.75;;
43857;SDS011;29507;51.284;5.758;2023-05-10T07:17:45;25.13;;;12.27;;
43857;SDS011;29507;51.284;5.758;2023-05-10T07:20:10;24.63;;;12.93;;
43857;SDS011;29507;51.284;5.758;2023-05-10T07:22:36;27.05;;;11.90;;
43857;SDS011;29507;51.284;5.758;2023-05-10T07:25:02;23.27;;;10.98;;
43857;SDS011;29507;51.284;5.758;2023-05-10T07:27:28;19.27;;;10.85;;
43857;SDS011;29507;51.284;5.758;2023-05-10T07:29:53;24.48;;;12.50;;
43857;SDS011;29507;51.284;5.758;2023-05-10T07:32:20;23.20;;;12.25;;
43857;SDS011;29507;51.284;5.758;2023-05-10T07:34:46;23.85;;;12.75;;
43857;SDS011;29507;51.284;5.758;2023-05-10T07:37:12;21.50;;;11.60;;
43857;SDS011;29507;51.284;5.758;2023-05-10T07:39:37;20.92;;;11.98;;
43857;SDS011;29507;51.284;5.758;2023-05-10T07:42:03;20.27;;;10.60;;
43857;SDS011;29507;51.284;5.758;2023-05-10T07:44:28;20.58;;;10.90;;
43857;SDS011;29507;51.284;5.758;2023-05-10T07:46:54;19.60;;;10.18;;
43857;SDS011;29507;51.284;5.758;2023-05-10T07:49:20;20.65;;;11.18;;
43857;SDS011;29507;51.284;5.758;2023-05-10T07:51:46;23.50;;;11.65;;
43857;SDS011;29507;51.284;5.758;2023-05-10T07:54:12;20.05;;;10.90;;
43857;SDS011;29507;51.284;5.758;2023-05-10T07:56:41;21.30;;;11.15;;
43857;SDS011;29507;51.284;5.758;2023-05-10T07:59:14;20.02;;;10.45;;
43857;SDS011;29507;51.284;5.758;2023-05-10T08:01:41;20.83;;;9.95;;
43857;SDS011;29507;51.284;5.758;2023-05-10T08:04:07;20.05;;;9.38;;
43857;SDS011;29507;51.284;5.758;2023-05-10T08:06:33;20.55;;;9.57;;
43857;SDS011;29507;51.284;5.758;2023-05-10T08:08:59;20.38;;;8.80;;
43857;SDS011;29507;51.284;5.758;2023-05-10T08:11:25;15.30;;;8.45;;
43857;SDS011;29507;51.284;5.758;2023-05-10T08:13:52;13.65;;;7.65;;
43857;SDS011;29507;51.284;5.758;2023-05-10T08:16:18;13.57;;;7.90;;
43857;SDS011;29507;51.284;5.758;2023-05-10T08:18:45;17.00;;;8.60;;
43857;SDS011;29507;51.284;5.758;2023-05-10T08:21:11;18.13;;;8.50;;
43857;SDS011;29507;51.284;5.758;2023-05-10T08:23:37;18.27;;;8.15;;
43857;SDS011;29507;51.284;5.758;2023-05-10T08:26:03;15.60;;;6.85;;
43857;SDS011;29507;51.284;5.758;2023-05-10T08:28:28;14.57;;;7.50;;
43857;SDS011;29507;51.284;5.758;2023-05-10T08:30:54;15.38;;;7.40;;
43857;SDS011;29507;51.284;5.758;2023-05-10T08:33:20;17.13;;;7.72;;
43857;SDS011;29507;51.284;5.758;2023-05-10T08:35:46;16.67;;;7.80;;
43857;SDS011;29507;51.284;5.758;2023-05-10T08:38:12;16.08;;;8.00;;
43857;SDS011;29507;51.284;5.758;2023-05-10T08:40:38;15.93;;;8.40;;
43857;SDS011;29507;51.284;5.758;2023-05-10T08:43:07;18.05;;;8.45;;
43857;SDS011;29507;51.284;5.758;2023-05-10T08:45:39;16.27;;;8.20;;
43857;SDS011;29507;51.284;5.758;2023-05-10T08:48:06;15.95;;;8.70;;
43857;SDS011;29507;51.284;5.758;2023-05-10T08:50:37;18.15;;;8.50;;
43857;SDS011;29507;51.284;5.758;2023-05-10T08:53:05;18.00;;;9.10;;
43857;SDS011;29507;51.284;5.758;2023-05-10T08:55:34;15.65;;;8.20;;
43857;SDS011;29507;51.284;5.758;2023-05-10T08:58:02;17.35;;;9.10;;
43857;SDS011;29507;51.284;5.758;2023-05-10T09:00:28;13.30;;;8.60;;
43857;SDS011;29507;51.284;5.758;2023-05-10T09:02:55;15.07;;;8.23;;
43857;SDS011;29507;51.284;5.758;2023-05-10T09:05:25;16.50;;;9.43;;
43857;SDS011;29507;51.284;5.758;2023-05-10T09:07:51;17.65;;;9.73;;
43857;SDS011;29507;51.284;5.758;2023-05-10T09:10:17;19.13;;;10.48;;
43857;SDS011;29507;51.284;5.758;2023-05-10T09:12:43;13.70;;;8.70;;
43857;SDS011;29507;51.284;5.758;2023-05-10T09:15:10;16.48;;;8.90;;
43857;SDS011;29507;51.284;5.758;2023-05-10T09:17:37;14.75;;;8.85;;
43857;SDS011;29507;51.284;5.758;2023-05-10T09:20:05;17.65;;;9.20;;
43857;SDS011;29507;51.284;5.758;2023-05-10T09:22:32;16.15;;;10.05;;
43857;SDS011;29507;51.284;5.758;2023-05-10T09:25:05;16.83;;;9.35;;
43857;SDS011;29507;51.284;5.758;2023-05-10T09:27:31;20.98;;;10.43;;
43857;SDS011;29507;51.284;5.758;2023-05-10T09:29:57;19.83;;;9.32;;
43857;SDS011;29507;51.284;5.758;2023-05-10T09:32:38;13.10;;;7.75;;
43857;SDS011;29507;51.284;5.758;2023-05-10T09:35:26;14.30;;;7.65;;
43857;SDS011;29507;51.284;5.758;2023-05-10T09:37:54;11.68;;;6.57;;
43857;SDS011;29507;51.284;5.758;2023-05-10T09:40:21;12.25;;;6.35;;
43857;SDS011;29507;51.284;5.758;2023-05-10T09:42:54;8.73;;;6.05;;
43857;SDS011;29507;51.284;5.758;2023-05-10T09:45:25;9.50;;;5.90;;
43857;SDS011;29507;51.284;5.758;2023-05-10T09:47:55;9.60;;;5.78;;
43857;SDS011;29507;51.284;5.758;2023-05-10T09:50:21;10.57;;;5.70;;
43857;SDS011;29507;51.284;5.758;2023-05-10T09:52:51;10.52;;;5.72;;
43857;SDS011;29507;51.284;5.758;2023-05-10T09:55:21;9.68;;;6.15;;
43857;SDS011;29507;51.284;5.758;2023-05-10T09:57:48;9.25;;;4.97;;
43857;SDS011;29507;51.284;5.758;2023-05-10T10:00:22;8.60;;;5.53;;
43857;SDS011;29507;51.284;5.758;2023-05-10T10:02:55;8.20;;;4.72;;
43857;SDS011;29507;51.284;5.758;2023-05-10T10:05:31;7.05;;;4.32;;
43857;SDS011;29507;51.284;5.758;2023-05-10T10:08:01;9.02;;;4.38;;
43857;SDS011;29507;51.284;5.758;2023-05-10T10:10:28;6.57;;;4.10;;
43857;SDS011;29507;51.284;5.758;2023-05-10T10:12:55;6.35;;;3.90;;
43857;SDS011;29507;51.284;5.758;2023-05-10T10:15:21;7.03;;;4.18;;
43857;SDS011;29507;51.284;5.758;2023-05-10T10:17:48;8.13;;;4.45;;
43857;SDS011;29507;51.284;5.758;2023-05-10T10:20:15;6.97;;;4.20;;
43857;SDS011;29507;51.284;5.758;2023-05-10T10:22:41;7.78;;;4.70;;
43857;SDS011;29507;51.284;5.758;2023-05-10T10:25:08;9.32;;;4.57;;
43857;SDS011;29507;51.284;5.758;2023-05-10T10:33:18;11.20;;;7.25;;
43857;SDS011;29507;51.284;5.758;2023-05-10T10:35:53;10.95;;;7.30;;
43857;SDS011;29507;51.284;5.758;2023-05-10T10:38:20;12.23;;;7.75;;
43857;SDS011;29507;51.284;5.758;2023-05-10T10:40:47;13.48;;;7.72;;
43857;SDS011;29507;51.284;5.758;2023-05-10T10:43:26;15.45;;;8.57;;
43857;SDS011;29507;51.284;5.758;2023-05-10T10:46:09;13.63;;;7.65;;
43857;SDS011;29507;51.284;5.758;2023-05-10T10:48:37;13.05;;;7.25;;
43857;SDS011;29507;51.284;5.758;2023-05-10T10:51:03;13.32;;;9.13;;
43857;SDS011;29507;51.284;5.758;2023-05-10T10:53:29;15.07;;;9.68;;
43857;SDS011;29507;51.284;5.758;2023-05-10T10:56:05;17.20;;;9.95;;
43857;SDS011;29507;51.284;5.758;2023-05-10T10:58:35;19.25;;;11.32;;
43857;SDS011;29507;51.284;5.758;2023-05-10T11:01:14;18.63;;;11.50;;
43857;SDS011;29507;51.284;5.758;2023-05-10T11:08:56;19.13;;;12.05;;
43857;SDS011;29507;51.284;5.758;2023-05-10T11:11:22;17.75;;;11.10;;
43857;SDS011;29507;51.284;5.758;2023-05-10T11:13:48;19.30;;;11.20;;
43857;SDS011;29507;51.284;5.758;2023-05-10T11:21:18;16.58;;;10.07;;
43857;SDS011;29507;51.284;5.758;2023-05-10T11:26:13;18.50;;;10.50;;
43857;SDS011;29507;51.284;5.758;2023-05-10T11:28:48;16.17;;;10.18;;
43857;SDS011;29507;51.284;5.758;2023-05-10T11:31:15;16.88;;;9.68;;
43857;SDS011;29507;51.284;5.758;2023-05-10T11:33:45;13.63;;;8.95;;
43857;SDS011;29507;51.284;5.758;2023-05-10T11:36:15;14.88;;;8.70;;
43857;SDS011;29507;51.284;5.758;2023-05-10T11:39:00;12.50;;;7.85;;
43857;SDS011;29507;51.284;5.758;2023-05-10T11:41:28;12.77;;;7.35;;
43857;SDS011;29507;51.284;5.758;2023-05-10T11:43:54;15.15;;;8.35;;
43857;SDS011;29507;51.284;5.758;2023-05-10T11:46:22;12.27;;;7.45;;
43857;SDS011;29507;51.284;5.758;2023-05-10T11:49:01;11.30;;;7.07;;
43857;SDS011;29507;51.284;5.758;2023-05-10T11:51:29;11.18;;;7.60;;
43857;SDS011;29507;51.284;5.758;2023-05-10T11:53:58;10.82;;;7.47;;
43857;SDS011;29507;51.284;5.758;2023-05-10T11:56:23;13.15;;;8.05;;
43857;SDS011;29507;51.284;5.758;2023-05-10T11:58:55;13.55;;;7.80;;
43857;SDS011;29507;51.284;5.758;2023-05-10T12:01:21;11.40;;;7.82;;
43857;SDS011;29507;51.284;5.758;2023-05-10T12:03:49;12.65;;;8.25;;
43857;SDS011;29507;51.284;5.758;2023-05-10T12:06:15;13.52;;;8.10;;
43857;SDS011;29507;51.284;5.758;2023-05-10T12:08:44;12.65;;;7.72;;
43857;SDS011;29507;51.284;5.758;2023-05-10T12:11:17;12.35;;;8.00;;
43857;SDS011;29507;51.284;5.758;2023-05-10T12:13:44;13.57;;;8.25;;
43857;SDS011;29507;51.284;5.758;2023-05-10T12:16:23;12.43;;;7.30;;
43857;SDS011;29507;51.284;5.758;2023-05-10T12:18:56;11.20;;;7.07;;
43857;SDS011;29507;51.284;5.758;2023-05-10T12:21:23;10.13;;;6.63;;
43857;SDS011;29507;51.284;5.758;2023-05-10T12:23:51;13.07;;;7.22;;
43857;SDS011;29507;51.284;5.758;2023-05-10T12:26:18;16.00;;;7.55;;
43857;SDS011;29507;51.284;5.758;2023-05-10T12:28:46;14.32;;;7.32;;
43857;SDS011;29507;51.284;5.758;2023-05-10T12:31:12;13.52;;;6.35;;
43857;SDS011;29507;51.284;5.758;2023-05-10T12:33:38;11.65;;;6.45;;
43857;SDS011;29507;51.284;5.758;2023-05-10T12:36:11;10.98;;;6.30;;
43857;SDS011;29507;51.284;5.758;2023-05-10T12:38:39;13.50;;;6.88;;
43857;SDS011;29507;51.284;5.758;2023-05-10T12:41:13;12.13;;;7.57;;
43857;SDS011;29507;51.284;5.758;2023-05-10T12:43:40;8.27;;;5.93;;
43857;SDS011;29507;51.284;5.758;2023-05-10T12:46:09;11.35;;;6.28;;
43857;SDS011;29507;51.284;5.758;2023-05-10T12:48:37;11.00;;;6.50;;
43857;SDS011;29507;51.284;5.758;2023-05-10T12:51:03;10.73;;;6.50;;
43857;SDS011;29507;51.284;5.758;2023-05-10T12:53:30;13.07;;;6.97;;
43857;SDS011;29507;51.284;5.758;2023-05-10T12:55:56;12.00;;;6.50;;
43857;SDS011;29507;51.284;5.758;2023-05-10T12:58:22;10.70;;;5.72;;
43857;SDS011;29507;51.284;5.758;2023-05-10T13:00:47;10.02;;;5.53;;
43857;SDS011;29507;51.284;5.758;2023-05-10T13:03:13;13.70;;;6.97;;
43857;SDS011;29507;51.284;5.758;2023-05-10T13:05:40;8.25;;;6.00;;
43857;SDS011;29507;51.284;5.758;2023-05-10T13:08:06;10.55;;;6.32;;
43857;SDS011;29507;51.284;5.758;2023-05-10T13:10:31;9.38;;;6.03;;
43857;SDS011;29507;51.284;5.758;2023-05-10T13:12:58;10.07;;;5.75;;
43857;SDS011;29507;51.284;5.758;2023-05-10T13:15:24;9.70;;;5.45;;
43857;SDS011;29507;51.284;5.758;2023-05-10T13:17:50;7.60;;;5.07;;
43857;SDS011;29507;51.284;5.758;2023-05-10T13:20:16;11.25;;;5.43;;
43857;SDS011;29507;51.284;5.758;2023-05-10T13:22:42;9.40;;;5.75;;
43857;SDS011;29507;51.284;5.758;2023-05-10T13:25:09;11.27;;;6.20;;
43857;SDS011;29507;51.284;5.758;2023-05-10T13:27:34;9.57;;;4.85;;
43857;SDS011;29507;51.284;5.758;2023-05-10T13:30:01;11.13;;;5.82;;
43857;SDS011;29507;51.284;5.758;2023-05-10T13:32:28;9.57;;;5.82;;
43857;SDS011;29507;51.284;5.758;2023-05-10T13:34:54;12.02;;;6.10;;
43857;SDS011;29507;51.284;5.758;2023-05-10T13:37:20;9.90;;;5.28;;
43857;SDS011;29507;51.284;5.758;2023-05-10T13:39:46;12.23;;;6.38;;
43857;SDS011;29507;51.284;5.758;2023-05-10T13:42:12;12.13;;;6.10;;
43857;SDS011;29507;51.284;5.758;2023-05-10T13:44:37;14.82;;;7.32;;
43857;SDS011;29507;51.284;5.758;2023-05-10T13:47:04;10.68;;;5.65;;
43857;SDS011;29507;51.284;5.758;2023-05-10T13:49:30;13.52;;;6.72;;
43857;SDS011;29507;51.284;5.758;2023-05-10T13:51:56;9.02;;;5.47;;
43857;SDS011;29507;51.284;5.758;2023-05-10T13:54:21;11.30;;;5.82;;
43857;SDS011;29507;51.284;5.758;2023-05-10T13:56:48;15.55;;;7.20;;
43857;SDS011;29507;51.284;5.758;2023-05-10T13:59:13;15.10;;;6.47;;
43857;SDS011;29507;51.284;5.758;2023-05-10T14:01:42;13.63;;;7.32;;
43857;SDS011;29507;51.284;5.758;2023-05-10T14:04:08;16.70;;;7.75;;
43857;SDS011;29507;51.284;5.758;2023-05-10T14:06:35;20.58;;;9.45;;
43857;SDS011;29507;51.284;5.758;2023-05-10T14:09:01;13.60;;;7.90;;
43857;SDS011;29507;51.284;5.758;2023-05-10T14:11:28;15.35;;;8.60;;
43857;SDS011;29507;51.284;5.758;2023-05-10T14:13:53;14.60;;;7.55;;
43857;SDS011;29507;51.284;5.758;2023-05-10T14:16:19;15.27;;;8.07;;
43857;SDS011;29507;51.284;5.758;2023-05-10T14:18:46;16.80;;;6.88;;
43857;SDS011;29507;51.284;5.758;2023-05-10T14:21:12;16.52;;;7.65;;
43857;SDS011;29507;51.284;5.758;2023-05-10T14:23:38;15.82;;;7.43;;
43857;SDS011;29507;51.284;5.758;2023-05-10T14:26:03;14.48;;;7.38;;
43857;SDS011;29507;51.284;5.758;2023-05-10T14:28:29;15.35;;;6.32;;
43857;SDS011;29507;51.284;5.758;2023-05-10T14:30:55;18.40;;;6.63;;
43857;SDS011;29507;51.284;5.758;2023-05-10T14:33:21;11.57;;;6.20;;
43857;SDS011;29507;51.284;5.758;2023-05-10T14:35:47;10.45;;;5.13;;
43857;SDS011;29507;51.284;5.758;2023-05-10T14:38:13;11.45;;;5.45;;
43857;SDS011;29507;51.284;5.758;2023-05-10T14:40:39;15.60;;;7.68;;
43857;SDS011;29507;51.284;5.758;2023-05-10T14:43:04;14.80;;;8.25;;
43857;SDS011;29507;51.284;5.758;2023-05-10T14:45:30;13.25;;;7.68;;
43857;SDS011;29507;51.284;5.758;2023-05-10T14:47:56;11.43;;;7.15;;
43857;SDS011;29507;51.284;5.758;2023-05-10T14:50:22;9.75;;;5.90;;
43857;SDS011;29507;51.284;5.758;2023-05-10T14:52:48;9.73;;;6.85;;
43857;SDS011;29507;51.284;5.758;2023-05-10T14:55:14;10.00;;;6.70;;
43857;SDS011;29507;51.284;5.758;2023-05-10T14:57:40;12.40;;;7.57;;
43857;SDS011;29507;51.284;5.758;2023-05-10T15:00:06;15.57;;;8.10;;
43857;SDS011;29507;51.284;5.758;2023-05-10T15:02:32;12.00;;;7.75;;